메인 페이지
METAR-TAF:

METAR-TAF

공항 :

Plainview, 텍사스, 미국

위도: 34-10-05N, 경도: 101-43-02W, 고도: 1028m

현재 날씨관측

예보는 19분 전, 15:35시(UTC)에 발표되었습니다.
12kt
온도 13°C
습도 77%
기압 1022 hPa
시정: 16.1km
고도 1600ft 상공 흐림

METAR: KPVW 201535Z AUTO 01012KT 10SM OVC016 13/09 A3017 RMK AO2 T01250088

시각: 10:54 (15:54 UTC)

예보

예보는 3 시간 21분 전, 12:33시(UTC)에 발표되었습니다.
예보 대상 시간: 20일 13시부터 21일 12시까지 (UTC)
동북동11kt
시정: 10km
고도 1500ft 상공 구름 많음
20일 1800시부터 (UTC)
11kt
시정: 10km
고도 5000ft 상공 구름 보통

TAF: KPVW 201233Z 2013/2112 07011KT P6SM BKN015 FM201800 09011KT P6SM SCT050

4,000개 이상의 공항 관측 자료 및 예보 (METAR 및 TAF 보고).

지도상에서 검색 가능한 기상관측소가 노란 점과 빨간 점으로 표시되어 있습니다.

기상관측소 명을 보려면 표시 위로 마우스를 이동하세요.

날씨 관측과 예보를 보려면 클릭하세요.

지도 변경 : 확대하려면 엑스 표시가 있는 녹색 버튼, 축소하려면 빼기 표시가 있는 녹색 버튼, 다음 페이지의 지도를 보려면 녹색 화살표를 클릭하세요.


METAR-TAF: